Time;durP1;ratioP1;P1;durP2;ratioP2;P2;SDS_P1;SDS_P2;PMS_P1;PMS_P2;Temp;Humidity;BMP_temperature;BMP_pressure;BME280_temperature;BME280_humidity;BME280_pressure;Samples;Min_cycle;Max_cycle;Signal;HPM_P1;HPM_P2
2022/10/21 00:04:50;;;;;;;5.10;1.58;;;;;;;9.57;84.63;100329.22;10538890;28;20066;-68
2022/10/21 00:09:50;;;;;;;5.93;1.10;;;;;;;9.77;83.88;100371.38;10538697;28;20527;-69
2022/10/21 00:14:51;;;;;;;8.75;1.70;;;;;;;9.71;83.87;100380.78;10539018;28;20050;-68
2022/10/21 00:19:52;;;;;;;3.13;1.30;;;;;;;9.70;83.67;100407.50;10538143;28;20534;-68
2022/10/21 00:24:53;;;;;;;3.58;1.40;;;;;;;9.69;83.25;100411.13;10538595;28;20040;-68
2022/10/21 00:29:53;;;;;;;4.38;1.20;;;;;;;9.12;82.70;100338.34;10538156;28;20127;-68
2022/10/21 00:34:54;;;;;;;7.45;1.23;;;;;;;9.47;81.94;100404.59;10537893;28;20070;-68
2022/10/21 00:39:55;;;;;;;5.90;1.40;;;;;;;9.14;81.39;100377.91;10537435;28;20097;-68
2022/10/21 00:45:20;;;;;;;5.15;1.33;;;;;;;9.41;79.47;100416.66;10537435;28;20506;-67
2022/10/21 00:50:31;;;;;;;5.15;1.60;;;;;;;8.55;79.62;100300.91;10534940;28;20123;-68
2022/10/21 00:55:38;;;;;;;3.97;1.63;;;;;;;9.19;81.02;100422.50;10537777;28;20051;-68
2022/10/21 01:00:39;;;;;;;4.10;1.40;;;;;;;9.14;81.59;100421.16;10535893;28;20043;-68
2022/10/21 01:05:43;;;;;;;4.85;1.80;;;;;;;9.02;80.93;100417.09;10537053;28;20052;-69
2022/10/21 01:10:44;;;;;;;4.57;1.65;;;;;;;8.57;81.73;100343.97;10536837;28;20494;-68
2022/10/21 01:15:56;;;;;;;5.40;1.60;;;;;;;8.57;81.40;100343.13;10536817;28;20043;-68
2022/10/21 01:21:27;;;;;;;5.57;1.55;;;;;;;9.07;80.57;100436.03;10537363;28;20100;-67
2022/10/21 01:26:46;;;;;;;4.53;1.30;;;;;;;9.01;77.50;100449.91;10537544;28;20036;-68
2022/10/21 01:32:27;;;;;;;3.55;1.30;;;;;;;9.00;76.98;100450.84;10536243;28;20048;-67
2022/10/21 01:37:42;;;;;;;6.05;1.65;;;;;;;8.65;77.09;100404.94;10536974;28;20127;-67
2022/10/21 01:42:57;;;;;;;3.15;1.55;;;;;;;8.33;77.91;100376.34;10539913;28;20063;-67
2022/10/21 01:48:06;;;;;;;3.75;1.63;;;;;;;8.53;78.40;100430.00;10544269;28;20051;-67
2022/10/21 01:53:11;;;;;;;5.45;1.48;;;;;;;8.70;79.97;100486.56;10544255;28;20119;-67
2022/10/21 01:58:18;;;;;;;3.90;1.58;;;;;;;8.45;79.87;100465.16;10544216;28;20040;-67
2022/10/21 02:03:23;;;;;;;4.15;1.30;;;;;;;8.42;79.88;100478.69;10543900;28;20075;-67
2022/10/21 02:08:24;;;;;;;5.28;1.17;;;;;;;8.22;81.17;100483.25;10544324;28;20052;-67
2022/10/21 02:13:33;;;;;;;5.07;1.23;;;;;;;8.08;79.43;100483.78;10535336;28;20032;-67
2022/10/21 02:18:34;;;;;;;3.35;1.20;;;;;;;8.12;81.31;100513.41;10542822;28;20051;-68
2022/10/21 02:24:00;;;;;;;2.42;1.00;;;;;;;7.94;79.07;100514.19;10540779;28;20051;-67
2022/10/21 02:29:01;;;;;;;8.20;1.30;;;;;;;7.66;80.77;100494.84;10542520;28;20036;-67
2022/10/21 02:34:29;;;;;;;10.18;1.70;;;;;;;7.71;80.28;100513.72;10543074;28;20040;-67
2022/10/21 02:39:51;;;;;;;5.28;1.10;;;;;;;7.62;77.92;100514.59;10543150;28;20056;-67
2022/10/21 02:44:52;;;;;;;5.30;1.23;;;;;;;7.43;79.45;100504.94;10541935;28;20047;-67
2022/10/21 02:49:53;;;;;;;2.92;1.33;;;;;;;7.49;79.04;100500.88;10541924;28;20039;-68
2022/10/21 02:54:54;;;;;;;7.20;1.25;;;;;;;6.53;78.56;100345.16;10541919;28;20079;-68
2022/10/21 02:59:54;;;;;;;3.92;1.15;;;;;;;7.38;77.93;100499.25;10542115;28;20051;-67
2022/10/21 03:04:55;;;;;;;5.85;1.35;;;;;;;6.39;78.68;100345.59;10540576;28;20056;-66
2022/10/21 03:09:56;;;;;;;11.00;1.30;;;;;;;7.35;78.76;100514.56;10541112;28;20130;-67
2022/10/21 03:14:57;;;;;;;5.22;1.30;;;;;;;6.87;78.55;100442.34;10539348;28;20044;-66
2022/10/21 03:19:57;;;;;;;8.48;1.00;;;;;;;7.23;78.55;100525.28;10540325;28;20063;-68
2022/10/21 03:24:58;;;;;;;2.05;1.00;;;;;;;7.20;78.70;100528.19;10540220;28;20047;-67
2022/10/21 03:29:59;;;;;;;6.88;1.10;;;;;;;7.22;79.00;100543.94;10539568;28;20089;-67
2022/10/21 03:35:00;;;;;;;2.80;0.80;;;;;;;7.20;79.16;100549.34;10540341;28;20040;-67
2022/10/21 03:40:00;;;;;;;2.60;0.93;;;;;;;7.12;78.60;100538.66;10539666;28;20071;-67
2022/10/21 03:45:01;;;;;;;6.85;1.10;;;;;;;7.23;78.39;100549.06;10540089;28;20043;-67
2022/10/21 03:50:02;;;;;;;6.18;1.35;;;;;;;7.11;78.13;100526.41;10522442;28;20056;-69
2022/10/21 03:55:04;;;;;;;7.55;1.40;;;;;;;7.38;78.30;100562.66;10539482;28;20032;-68
2022/10/21 04:00:05;;;;;;;3.20;1.15;;;;;;;7.46;77.93;100541.66;10537596;28;20521;-68
2022/10/21 04:05:06;;;;;;;3.50;1.50;;;;;;;7.53;78.27;100552.47;10535171;28;20052;-68
2022/10/21 04:10:08;;;;;;;3.55;1.10;;;;;;;7.17;78.19;100498.59;10535845;28;20032;-68
2022/10/21 04:15:12;;;;;;;3.28;1.30;;;;;;;7.40;78.39;100549.31;10535607;28;20066;-66
2022/10/21 04:20:13;;;;;;;4.35;1.50;;;;;;;7.36;78.85;100556.72;10536741;28;20411;-68
2022/10/21 04:25:14;;;;;;;8.45;1.42;;;;;;;7.39;78.86;100547.63;10538005;28;20119;-67
2022/10/21 04:30:15;;;;;;;10.40;1.35;;;;;;;7.39;79.08;100542.34;10538052;28;20138;-67
2022/10/21 04:35:16;;;;;;;3.17;1.08;;;;;;;7.83;78.28;100559.34;10538208;28;20470;-67
2022/10/21 04:40:17;;;;;;;5.70;0.90;;;;;;;7.96;77.84;100575.75;10520186;28;20066;-68
2022/10/21 04:45:18;;;;;;;3.80;1.00;;;;;;;7.37;78.16;100480.91;10578660;28;20040;-67
2022/10/21 04:50:19;;;;;;;4.05;1.02;;;;;;;7.87;77.87;100547.50;10579941;28;20042;-67
2022/10/21 04:55:20;;;;;;;5.15;1.17;;;;;;;8.29;76.74;100548.84;10579277;28;20043;-66
2022/10/21 05:00:21;;;;;;;3.85;1.30;;;;;;;8.55;75.74;100568.34;10579696;28;20150;-69
2022/10/21 05:05:22;;;;;;;5.03;0.90;;;;;;;8.66;75.91;100586.66;10579433;28;20051;-67
2022/10/21 05:10:24;;;;;;;6.07;1.10;;;;;;;7.80;75.76;100439.78;10579534;28;20574;-66
2022/10/21 05:15:25;;;;;;;5.97;1.02;;;;;;;9.16;75.53;100603.06;10579343;28;20575;-67
2022/10/21 05:20:26;;;;;;;6.43;1.05;;;;;;;9.38;74.99;100623.78;10587654;28;20395;-67
2022/10/21 05:25:27;;;;;;;3.13;0.90;;;;;;;9.53;74.05;100622.22;10588695;28;20074;-67
2022/10/21 05:30:28;;;;;;;5.43;0.93;;;;;;;8.96;73.84;100468.06;10588269;28;20082;-67
2022/10/21 05:35:29;;;;;;;3.67;0.90;;;;;;;10.26;73.01;100655.53;10586932;28;20043;-67
2022/10/21 05:40:30;;;;;;;2.30;0.80;;;;;;;10.56;72.62;100664.84;10587482;28;20036;-67
2022/10/21 05:45:31;;;;;;;4.20;0.80;;;;;;;10.38;71.54;100597.69;10587336;28;20100;-67
2022/10/21 05:50:32;;;;;;;4.35;0.80;;;;;;;10.59;71.07;100583.97;10587491;28;20048;-67
2022/10/21 05:55:32;;;;;;;1.90;0.45;;;;;;;11.41;70.45;100665.53;10586139;28;20380;-67
2022/10/21 06:00:34;;;;;;;0.82;0.40;;;;;;;11.68;69.20;100668.03;10585947;28;20056;-67
2022/10/21 06:05:34;;;;;;;1.33;0.50;;;;;;;11.87;67.86;100662.38;10586907;28;20169;-67
2022/10/21 06:10:35;;;;;;;2.90;0.50;;;;;;;11.95;67.46;100638.41;10585667;28;20137;-66
2022/10/21 06:15:36;;;;;;;2.22;0.50;;;;;;;11.94;66.65;100625.28;10584750;28;20036;-67
2022/10/21 06:20:37;;;;;;;2.05;0.35;;;;;;;12.21;66.38;100654.16;10585164;28;20092;-67
2022/10/21 06:25:38;;;;;;;2.15;0.45;;;;;;;11.70;65.83;100559.59;10585578;28;20036;-67
2022/10/21 06:30:38;;;;;;;2.22;0.57;;;;;;;12.43;66.37;100665.06;10584612;28;20112;-66
2022/10/21 06:35:39;;;;;;;1.33;0.35;;;;;;;12.55;66.24;100659.19;10585071;28;20041;-68
2022/10/21 06:40:40;;;;;;;2.75;0.30;;;;;;;12.63;65.18;100655.66;10584309;28;20055;-67
2022/10/21 06:45:41;;;;;;;2.33;0.47;;;;;;;12.86;65.19;100646.88;10585387;28;20035;-66
2022/10/21 06:50:42;;;;;;;0.75;0.30;;;;;;;13.16;63.96;100655.84;10584905;28;20043;-67
2022/10/21 06:55:43;;;;;;;1.40;0.50;;;;;;;12.95;64.24;100606.66;10584254;28;20490;-66
2022/10/21 07:00:43;;;;;;;1.88;0.52;;;;;;;13.23;64.61;100678.97;10583595;28;20558;-66
2022/10/21 07:05:44;;;;;;;2.20;0.70;;;;;;;13.01;63.90;100672.63;10584040;28;20052;-67
2022/10/21 07:10:45;;;;;;;3.30;0.65;;;;;;;13.10;63.51;100651.22;10584062;28;20039;-66
2022/10/21 07:15:46;;;;;;;4.97;0.70;;;;;;;12.75;62.65;100584.97;10582985;28;20050;-66
2022/10/21 07:20:47;;;;;;;4.28;0.70;;;;;;;13.41;62.81;100652.03;10582543;28;20043;-66
2022/10/21 07:25:47;;;;;;;1.60;0.60;;;;;;;13.11;61.67;100571.03;10582619;28;20040;-66
2022/10/21 07:30:48;;;;;;;3.92;0.65;;;;;;;13.04;62.07;100548.75;10583890;28;20135;-66
2022/10/21 07:35:50;;;;;;;2.83;0.60;;;;;;;13.60;61.92;100639.19;10583943;28;20105;-66
2022/10/21 07:40:50;;;;;;;1.83;0.45;;;;;;;13.53;61.62;100620.41;10581513;28;20142;-67
2022/10/21 07:45:51;;;;;;;1.88;0.63;;;;;;;13.25;61.90;100561.44;10582837;28;20138;-66
2022/10/21 07:50:52;;;;;;;2.20;0.65;;;;;;;13.92;62.22;100630.88;10581545;28;20051;-67
2022/10/21 07:56:15;;;;;;;0.90;0.40;;;;;;;14.16;60.44;100636.97;10563804;28;20035;-66
2022/10/21 08:01:17;;;;;;;1.52;0.60;;;;;;;13.97;61.55;100641.03;10581927;28;20039;-66
2022/10/21 08:06:18;;;;;;;2.65;0.73;;;;;;;14.23;61.23;100663.78;10581341;28;20051;-67
2022/10/21 08:11:21;;;;;;;0.88;0.43;;;;;;;14.24;60.33;100644.06;10581827;28;20044;-67
2022/10/21 08:16:23;;;;;;;2.60;0.65;;;;;;;14.17;59.43;100641.28;10580617;28;20222;-67
2022/10/21 08:21:23;;;;;;;7.57;0.70;;;;;;;14.09;59.65;100650.25;10562819;28;20044;-68
2022/10/21 08:26:24;;;;;;;3.28;0.60;;;;;;;14.04;59.60;100611.72;10580368;28;20100;-67
2022/10/21 08:31:25;;;;;;;3.65;0.60;;;;;;;14.26;59.08;100640.19;10579373;28;20037;-67
2022/10/21 08:36:26;;;;;;;10.85;0.52;;;;;;;14.37;59.40;100641.56;10579896;28;20047;-66
2022/10/21 08:41:29;;;;;;;1.55;0.70;;;;;;;14.03;58.78;100553.97;10579726;28;20043;-67
2022/10/21 08:46:46;;;;;;;3.53;0.60;;;;;;;14.14;58.36;100553.50;10580683;28;20070;-68
2022/10/21 08:52:02;;;;;;;4.38;0.60;;;;;;;14.85;57.51;100650.00;10561499;28;20053;-66
2022/10/21 08:57:03;;;;;;;5.78;0.60;;;;;;;14.36;58.20;100565.09;10561994;28;20043;-68
2022/10/21 09:02:12;;;;;;;1.08;0.40;;;;;;;14.84;57.37;100640.34;10579037;28;20040;-66
2022/10/21 09:07:25;;;;;;;2.10;0.50;;;;;;;14.84;57.76;100633.13;10580037;28;20052;-67
2022/10/21 09:12:49;;;;;;;1.48;0.55;;;;;;;14.98;57.88;100639.44;10579378;28;20582;-67
2022/10/21 09:18:20;;;;;;;2.58;0.60;;;;;;;14.93;57.33;100644.56;10567976;28;20163;-67
2022/10/21 09:23:24;;;;;;;2.15;0.50;;;;;;;13.69;58.34;100505.44;10579733;28;20048;-66
2022/10/21 09:28:25;;;;;;;1.80;0.60;;;;;;;14.49;57.90;100640.09;10579318;28;20476;-67
2022/10/21 09:33:33;;;;;;;1.58;0.60;;;;;;;14.47;57.95;100642.09;10578021;28;20096;-66
2022/10/21 09:38:57;;;;;;;1.85;0.60;;;;;;;14.74;57.20;100637.94;10560819;28;20039;-67
2022/10/21 09:43:57;;;;;;;6.03;0.60;;;;;;;14.96;56.44;100654.88;10579606;28;20483;-66
2022/10/21 09:48:58;;;;;;;1.48;0.50;;;;;;;15.23;56.49;100629.22;10578872;28;20043;-67
2022/10/21 09:54:02;;;;;;;2.88;0.50;;;;;;;15.40;55.16;100650.34;10578967;28;20114;-67
2022/10/21 09:59:10;;;;;;;0.80;0.40;;;;;;;15.39;56.72;100644.19;10578205;28;20571;-66
2022/10/21 10:04:21;;;;;;;3.33;0.60;;;;;;;15.49;56.27;100644.66;10581802;28;20086;-67
2022/10/21 10:09:28;;;;;;;3.88;0.52;;;;;;;15.64;54.77;100675.91;10585644;28;20502;-67
2022/10/21 10:14:31;;;;;;;5.00;0.60;;;;;;;14.97;55.80;100594.16;10586691;28;20051;-67
2022/10/21 10:19:32;;;;;;;2.13;0.53;;;;;;;15.23;56.05;100657.84;10585889;28;20494;-67
2022/10/21 10:24:33;;;;;;;2.28;0.68;;;;;;;15.00;55.93;100655.31;10585581;28;20067;-68
2022/10/21 10:29:36;;;;;;;1.27;0.65;;;;;;;14.53;56.49;100609.31;10586363;28;20486;-67
2022/10/21 10:34:48;;;;;;;9.43;0.80;;;;;;;14.49;56.60;100608.00;10585392;28;20126;-67
2022/10/21 10:39:54;;;;;;;3.17;0.40;;;;;;;15.06;55.50;100690.16;10585394;28;20039;-67
2022/10/21 10:44:58;;;;;;;2.00;0.30;;;;;;;14.48;55.95;100664.31;10584420;28;20031;-67
2022/10/21 10:49:59;;;;;;;7.95;0.70;;;;;;;14.41;56.76;100688.28;10584847;28;20071;-67
2022/10/21 10:55:26;;;;;;;2.17;0.30;;;;;;;14.60;55.79;100687.78;10584076;28;20511;-67
2022/10/21 11:00:28;;;;;;;3.15;0.68;;;;;;;14.89;55.99;100687.91;10579903;28;20046;-67
2022/10/21 11:05:50;;;;;;;2.88;0.40;;;;;;;15.25;55.96;100688.72;10584687;28;20480;-67
2022/10/21 11:10:56;;;;;;;1.35;0.45;;;;;;;15.10;55.73;100689.78;10582308;28;20084;-68
2022/10/21 11:16:26;;;;;;;1.30;0.75;;;;;;;15.13;56.49;100719.66;10583664;28;20044;-67
2022/10/21 11:34:34;;;;;;;7.85;0.77;;;;;;;13.90;57.69;100720.19;10589976;27;20865;-69
2022/10/21 11:39:58;;;;;;;2.67;1.00;;;;;;;13.82;57.99;100755.84;10573226;28;20054;-68
2022/10/21 11:45:27;;;;;;;5.07;0.70;;;;;;;13.85;57.86;100754.63;10574062;28;20047;-68
2022/10/21 11:50:49;;;;;;;2.08;0.88;;;;;;;13.80;58.73;100768.53;10573781;28;20042;-71
2022/10/21 11:56:11;;;;;;;2.63;0.90;;;;;;;13.67;58.19;100769.13;10572785;28;20067;-69
2022/10/21 12:01:15;;;;;;;7.57;1.13;;;;;;;13.56;58.49;100777.53;10573059;28;20036;-69
2022/10/21 12:06:43;;;;;;;3.90;1.00;;;;;;;13.44;58.25;100787.78;10573112;28;20035;-72
2022/10/21 12:11:49;;;;;;;1.95;0.75;;;;;;;13.41;58.08;100769.44;10572687;28;20040;-69
2022/10/21 12:16:52;;;;;;;2.03;0.70;;;;;;;12.88;58.09;100715.00;10566265;28;20044;-67
2022/10/21 12:21:53;;;;;;;3.63;0.93;;;;;;;13.11;58.36;100780.94;10541974;28;20072;-69
2022/10/21 12:27:26;;;;;;;2.13;0.90;;;;;;;13.15;59.72;100799.06;10532095;28;20435;-70
2022/10/21 12:32:52;;;;;;;3.37;1.10;;;;;;;12.95;59.14;100788.00;10538391;28;20518;-67
2022/10/21 12:37:53;;;;;;;3.33;1.13;;;;;;;13.02;59.57;100801.47;10543760;28;20377;-69
2022/10/21 12:43:27;;;;;;;4.60;1.27;;;;;;;12.75;59.59;100762.75;10536008;28;20508;-68
2022/10/21 12:48:32;;;;;;;;;;;;;;;13.06;59.29;100810.78;10518225;28;20123;-68
2022/10/21 12:53:39;;;;;;;5.07;1.50;;;;;;;12.87;59.62;100819.19;10513680;28;19920;-68
2022/10/21 12:58:45;;;;;;;5.93;1.70;;;;;;;12.85;60.49;100821.19;10501855;28;20044;-68
2022/10/21 13:03:51;;;;;;;3.67;1.30;;;;;;;12.80;60.43;100829.69;10522981;28;20085;-70
2022/10/21 13:08:54;;;;;;;5.82;1.55;;;;;;;12.30;60.25;100753.53;10508341;28;20067;-69
2022/10/21 13:14:28;;;;;;;4.80;1.50;;;;;;;12.68;60.67;100837.22;10506971;28;20039;-69
2022/10/21 13:19:33;;;;;;;4.07;1.40;;;;;;;12.57;61.10;100829.59;10511938;28;20048;-69
2022/10/21 13:24:34;;;;;;;4.53;1.27;;;;;;;12.47;61.16;100835.06;10514514;28;20492;-69
2022/10/21 13:29:49;;;;;;;5.15;1.73;;;;;;;12.31;62.45;100817.28;10516594;28;20098;-68
2022/10/21 13:34:54;;;;;;;5.10;1.45;;;;;;;12.27;62.60;100860.41;10508285;28;20072;-69
2022/10/21 13:39:59;;;;;;;2.65;1.30;;;;;;;11.77;62.71;100786.78;10505044;28;20036;-69
2022/10/21 13:45:06;;;;;;;;;;;;;;;12.08;62.82;100859.75;10517301;28;20466;-68
2022/10/21 13:50:19;;;;;;;3.50;1.30;;;;;;;11.72;64.59;100852.97;10530869;28;20007;-69
2022/10/21 13:55:23;;;;;;;7.77;1.33;;;;;;;11.66;64.71;100876.56;10497233;28;20036;-68
2022/10/21 14:00:30;;;;;;;5.72;1.80;;;;;;;11.56;65.65;100888.38;10511962;28;20074;-69
2022/10/21 14:05:30;;;;;;;2.85;1.52;;;;;;;10.95;65.98;100816.66;10539324;28;20502;-69
2022/10/21 14:10:32;;;;;;;7.25;1.40;;;;;;;11.33;66.52;100906.72;10539680;28;20039;-69
2022/10/21 14:15:40;;;;;;;2.63;1.30;;;;;;;11.24;67.76;100937.75;10536627;28;20060;-68
2022/10/21 14:20:41;;;;;;;2.95;1.63;;;;;;;11.09;67.19;100939.34;10502090;28;20613;-69
2022/10/21 14:25:42;;;;;;;2.28;1.45;;;;;;;11.02;67.60;100948.94;10521344;28;20058;-68
2022/10/21 14:30:44;;;;;;;3.42;1.65;;;;;;;10.83;68.14;100940.19;10500260;28;20087;-68
2022/10/21 14:36:03;;;;;;;4.22;1.92;;;;;;;10.94;69.88;100974.44;10509613;28;20056;-70
2022/10/21 14:41:08;;;;;;;2.92;1.80;;;;;;;10.22;69.99;100885.16;10512225;28;20028;-69
2022/10/21 14:46:09;;;;;;;;;;;;;;;10.82;69.22;101002.28;10511643;28;20054;-68
2022/10/21 14:51:17;;;;;;;6.65;2.17;;;;;;;10.53;70.65;101010.50;10513321;28;20287;-68
2022/10/21 14:56:28;;;;;;;3.22;1.90;;;;;;;10.54;72.32;101020.13;10537872;28;20218;-68
2022/10/21 15:01:29;;;;;;;4.50;2.10;;;;;;;10.44;72.00;101030.84;10533489;28;20036;-68
2022/10/21 15:06:35;;;;;;;5.13;2.00;;;;;;;10.23;72.90;101020.44;10495701;28;20047;-68
2022/10/21 15:11:42;;;;;;;2.97;1.67;;;;;;;10.25;74.00;101036.22;10496006;28;20124;-69
2022/10/21 15:17:03;;;;;;;4.13;1.50;;;;;;;10.24;75.22;101051.31;10496947;28;20048;-68
2022/10/21 15:22:05;;;;;;;3.33;1.70;;;;;;;9.83;74.23;101005.69;10495908;28;20519;-68
2022/10/21 15:27:06;;;;;;;3.85;1.60;;;;;;;9.65;74.20;100996.84;10497342;28;20064;-68
2022/10/21 15:32:12;;;;;;;4.65;1.90;;;;;;;10.08;75.73;101088.31;10503239;28;20105;-69
2022/10/21 15:37:13;;;;;;;2.92;1.60;;;;;;;9.74;75.38;101053.50;10489115;28;20052;-69
2022/10/21 15:42:17;;;;;;;4.55;2.10;;;;;;;9.76;76.31;101092.19;10493821;28;20037;-71
2022/10/21 15:47:17;;;;;;;3.97;2.30;;;;;;;9.65;76.20;101081.75;10494864;28;20094;-69
2022/10/21 15:52:19;;;;;;;3.28;2.22;;;;;;;9.59;76.74;101100.88;10495174;28;20072;-66
2022/10/21 15:57:21;;;;;;;4.65;2.88;;;;;;;9.56;77.62;101109.13;10494934;28;20460;-69
2022/10/21 16:02:22;;;;;;;6.13;3.67;;;;;;;9.62;77.60;101135.09;10494239;28;20048;-68
2022/10/21 16:07:28;;;;;;;6.13;4.15;;;;;;;9.23;78.89;101060.88;10496937;28;20059;-67
2022/10/21 16:12:29;;;;;;;6.00;2.60;;;;;;;9.37;78.16;101102.88;10503500;28;20045;-68
2022/10/21 16:17:30;;;;;;;22.48;14.20;;;;;;;9.14;78.73;101083.78;10495218;28;20090;-69
2022/10/21 16:22:31;;;;;;;22.50;13.18;;;;;;;9.46;79.07;101146.28;10501531;28;20461;-68
2022/10/21 16:27:32;;;;;;;6.82;3.95;;;;;;;9.20;79.33;101124.78;10501465;28;20071;-69
2022/10/21 16:32:33;;;;;;;6.22;3.60;;;;;;;9.29;79.56;101162.88;10502200;28;20052;-70
2022/10/21 16:37:33;;;;;;;18.33;10.60;;;;;;;9.33;79.99;101185.50;10501945;28;20044;-69
2022/10/21 16:42:34;;;;;;;5.70;3.85;;;;;;;9.21;80.39;101189.25;10480335;28;20044;-69
2022/10/21 16:47:36;;;;;;;5.72;3.17;;;;;;;9.09;81.16;101207.97;10460340;28;20045;-69
2022/10/21 16:52:36;;;;;;;7.40;3.65;;;;;;;9.06;81.67;101212.66;10458961;28;20052;-69
2022/10/21 16:57:37;;;;;;;5.82;3.42;;;;;;;8.80;82.26;101175.25;10460380;28;20055;-68
2022/10/21 17:02:39;;;;;;;5.18;3.47;;;;;;;8.84;83.14;101208.44;10458690;28;20045;-69
2022/10/21 17:07:40;;;;;;;6.18;3.42;;;;;;;8.76;83.63;101226.81;10458599;28;20547;-69
2022/10/21 17:12:41;;;;;;;7.45;3.53;;;;;;;8.61;83.75;101229.00;10458749;28;20045;-70
2022/10/21 17:17:41;;;;;;;11.98;3.38;;;;;;;8.07;83.94;101163.94;10458929;28;20135;-67
2022/10/21 17:22:42;;;;;;;4.53;3.20;;;;;;;8.51;84.53;101250.16;10457656;28;20045;-67
2022/10/21 17:27:43;;;;;;;6.32;3.78;;;;;;;8.40;84.75;101252.88;10458860;28;20072;-67
2022/10/21 17:32:44;;;;;;;4.70;3.33;;;;;;;8.09;84.90;101212.28;10458443;28;20053;-67
2022/10/21 17:37:47;;;;;;;4.57;3.58;;;;;;;8.19;84.43;101251.06;10458916;28;20048;-69
2022/10/21 17:42:48;;;;;;;5.45;3.47;;;;;;;7.55;83.68;101161.25;10456064;28;20116;-68
2022/10/21 17:47:51;;;;;;;5.43;3.75;;;;;;;7.68;83.84;101198.91;10456980;28;20048;-69
2022/10/21 17:52:54;;;;;;;4.50;3.30;;;;;;;7.97;85.08;101261.78;10457396;28;20120;-68
2022/10/21 17:57:55;;;;;;;5.38;4.00;;;;;;;7.55;84.71;101214.97;10496726;28;20069;-68
2022/10/21 18:02:56;;;;;;;4.72;3.00;;;;;;;7.65;85.06;101275.88;10498500;28;20588;-67
2022/10/21 18:07:56;;;;;;;4.90;3.47;;;;;;;7.85;85.02;101307.78;10497808;28;20036;-68
2022/10/21 18:12:57;;;;;;;8.45;3.40;;;;;;;7.73;85.19;101296.41;10497202;28;20522;-67
2022/10/21 18:17:58;;;;;;;4.10;3.08;;;;;;;7.94;85.11;101325.53;10473042;28;20048;-67
2022/10/21 18:22:59;;;;;;;7.65;2.90;;;;;;;7.48;84.74;101239.41;10480879;28;20052;-67
2022/10/21 18:28:00;;;;;;;4.05;2.80;;;;;;;8.07;84.03;101330.66;10479300;28;20110;-67
2022/10/21 18:33:00;;;;;;;4.18;2.42;;;;;;;8.12;83.92;101337.25;10496818;28;20060;-68
2022/10/21 18:38:01;;;;;;;5.55;2.85;;;;;;;8.07;83.17;101318.25;10496292;28;20109;-68
2022/10/21 18:43:02;;;;;;;5.75;2.70;;;;;;;8.26;82.11;101333.47;10492846;28;20044;-69
2022/10/21 18:48:03;;;;;;;4.85;2.92;;;;;;;8.23;81.67;101334.56;10455362;28;20033;-67
2022/10/21 18:53:04;;;;;;;5.72;2.08;;;;;;;8.07;80.65;101297.09;10454866;28;20060;-68
2022/10/21 18:58:04;;;;;;;3.42;2.20;;;;;;;8.39;79.92;101338.59;10477568;28;20454;-68
2022/10/21 19:03:05;;;;;;;3.00;1.80;;;;;;;8.67;79.09;101377.66;10463995;28;20506;-68
2022/10/21 19:08:06;;;;;;;6.38;3.83;;;;;;;8.68;78.36;101366.09;10466678;28;20446;-68
2022/10/21 19:13:07;;;;;;;4.05;2.65;;;;;;;8.68;78.26;101373.19;10488791;28;20540;-68
2022/10/21 19:18:11;;;;;;;3.00;1.88;;;;;;;8.13;77.14;101304.50;10474173;28;20048;-68
2022/10/21 19:23:12;;;;;;;2.55;1.77;;;;;;;8.53;77.65;101367.38;10493947;28;20388;-68
2022/10/21 19:28:13;;;;;;;6.55;2.08;;;;;;;8.64;77.55;101387.66;10454017;28;20041;-67
2022/10/21 19:33:14;;;;;;;3.75;2.13;;;;;;;8.64;77.26;101388.50;10454868;28;20086;-67
2022/10/21 19:38:15;;;;;;;3.97;2.08;;;;;;;8.62;77.14;101401.03;10466430;28;20071;-68
2022/10/21 19:43:15;;;;;;;5.28;3.45;;;;;;;8.15;77.06;101314.97;10499174;28;20201;-67
2022/10/21 19:48:16;;;;;;;8.38;5.53;;;;;;;8.31;77.25;101344.47;10503163;28;20033;-69
2022/10/21 19:53:17;;;;;;;8.05;3.05;;;;;;;8.68;77.21;101419.06;10502253;28;20040;-67
2022/10/21 19:58:18;;;;;;;5.95;2.15;;;;;;;8.54;77.00;101369.06;10502607;28;20047;-67
2022/10/21 20:03:18;;;;;;;3.88;1.90;;;;;;;8.76;76.46;101410.44;10500044;28;20127;-68
2022/10/21 20:08:19;;;;;;;2.88;1.63;;;;;;;8.84;75.93;101412.47;10460934;28;20067;-69
2022/10/21 20:13:22;;;;;;;3.90;1.73;;;;;;;8.85;75.66;101417.63;10461215;28;20044;-68
2022/10/21 20:18:24;;;;;;;4.32;1.75;;;;;;;8.77;75.75;101395.41;10461026;28;20043;-68
2022/10/21 20:23:25;;;;;;;3.60;1.70;;;;;;;8.90;75.65;101425.19;10460783;28;20047;-68
2022/10/21 20:28:27;;;;;;;3.50;1.65;;;;;;;8.91;75.56;101427.72;10459943;28;20043;-67
2022/10/21 20:33:29;;;;;;;2.80;1.75;;;;;;;8.45;76.16;101353.94;10461178;28;20528;-68
2022/10/21 20:38:32;;;;;;;3.03;2.10;;;;;;;8.47;76.96;101381.16;10460196;28;20051;-68
2022/10/21 20:43:34;;;;;;;4.72;2.30;;;;;;;8.72;77.44;101430.25;10460186;28;20068;-68
2022/10/21 20:48:38;;;;;;;3.30;2.30;;;;;;;8.41;77.55;101389.63;10460559;28;20072;-68
2022/10/21 20:53:50;;;;;;;4.57;2.25;;;;;;;8.66;77.14;101436.88;10458934;28;20143;-68
2022/10/21 20:58:50;;;;;;;4.75;2.53;;;;;;;8.30;76.83;101402.88;10460035;28;20087;-69
2022/10/21 21:03:53;;;;;;;3.72;1.88;;;;;;;8.44;76.67;101452.91;10459440;28;20045;-68
2022/10/21 21:08:54;;;;;;;3.50;1.92;;;;;;;8.37;76.51;101454.31;10458565;28;20028;-68
2022/10/21 21:13:54;;;;;;;4.35;2.17;;;;;;;8.33;76.21;101453.75;10458737;28;20033;-68
2022/10/21 21:18:58;;;;;;;2.95;2.00;;;;;;;8.14;76.33;101443.00;10458823;28;20033;-68
2022/10/21 21:23:59;;;;;;;4.57;2.30;;;;;;;7.91;76.06;101413.09;10458478;28;20044;-68
2022/10/21 21:29:00;;;;;;;4.25;2.40;;;;;;;7.77;76.06;101403.63;10458985;28;20029;-68
2022/10/21 21:34:01;;;;;;;3.88;2.67;;;;;;;8.21;75.96;101495.28;10458473;28;20049;-68
2022/10/21 21:39:04;;;;;;;5.13;2.60;;;;;;;7.31;76.18;101341.22;10457394;28;20099;-68
2022/10/21 21:44:05;;;;;;;4.03;2.33;;;;;;;8.15;76.15;101493.16;10457882;28;20047;-70
2022/10/21 21:49:06;;;;;;;3.22;2.42;;;;;;;8.05;75.86;101491.34;10458150;28;20507;-68
2022/10/21 21:54:07;;;;;;;4.03;2.33;;;;;;;8.04;75.48;101482.56;10456630;28;20037;-68
2022/10/21 21:59:08;;;;;;;4.60;2.72;;;;;;;7.62;75.44;101416.28;10457696;28;20084;-68
2022/10/21 22:04:09;;;;;;;5.50;2.67;;;;;;;7.85;74.86;101459.41;10456237;28;20057;-68
2022/10/21 22:09:10;;;;;;;5.40;3.08;;;;;;;8.00;74.71;101489.09;10456308;28;20037;-67
2022/10/21 22:14:11;;;;;;;3.50;2.88;;;;;;;8.01;74.56;101498.69;10455952;28;20067;-68
2022/10/21 22:19:12;;;;;;;3.75;3.03;;;;;;;7.58;74.23;101436.00;10456248;28;20519;-67
2022/10/21 22:24:13;;;;;;;6.57;3.22;;;;;;;7.86;74.52;101492.84;10456093;28;20037;-68
2022/10/21 22:29:13;;;;;;;3.80;2.85;;;;;;;7.26;74.37;101422.69;10455467;28;20037;-68
2022/10/21 22:34:14;;;;;;;3.85;3.00;;;;;;;7.67;74.56;101514.63;10456255;28;20474;-68
2022/10/21 22:39:15;;;;;;;4.75;3.33;;;;;;;7.46;74.92;101474.00;10455605;28;20098;-67
2022/10/21 22:44:16;;;;;;;8.13;3.22;;;;;;;7.46;75.28;101488.06;10455548;28;20055;-68
2022/10/21 22:49:16;;;;;;;4.20;3.30;;;;;;;7.43;75.68;101516.53;10465475;28;20044;-68
2022/10/21 22:54:17;;;;;;;3.70;2.85;;;;;;;7.11;75.71;101485.47;10484870;28;20115;-68
2022/10/21 22:59:18;;;;;;;3.92;3.10;;;;;;;7.12;76.02;101504.81;10474539;28;20119;-67
2022/10/21 23:04:19;;;;;;;4.47;3.40;;;;;;;6.54;76.65;101413.19;10490948;28;20036;-68
2022/10/21 23:09:20;;;;;;;4.43;3.25;;;;;;;7.17;77.50;101524.66;10496269;28;20032;-70
2022/10/21 23:14:21;;;;;;;10.98;4.13;;;;;;;7.12;77.51;101534.75;10496143;28;20500;-68
2022/10/21 23:19:21;;;;;;;8.20;4.47;;;;;;;7.10;77.40;101539.31;10456132;28;20501;-68
2022/10/21 23:24:22;;;;;;;7.82;4.05;;;;;;;7.04;77.56;101534.47;10454315;28;20052;-68
2022/10/21 23:29:23;;;;;;;6.00;4.20;;;;;;;7.02;77.92;101546.94;10453924;28;20119;-68
2022/10/21 23:34:24;;;;;;;5.55;4.13;;;;;;;6.94;78.29;101542.25;10453558;28;20048;-68
2022/10/21 23:39:25;;;;;;;4.43;3.42;;;;;;;6.77;79.04;101513.63;10453992;28;20045;-68
2022/10/21 23:44:28;;;;;;;5.63;3.58;;;;;;;6.70;78.69;101525.59;10453889;28;20063;-68